sensor_id;sensor_type;location;lat;lon;timestamp;pressure;altitude;pressure_sealevel;temperature;humidity
73016;BME280;61893;50.074;14.440;2023-08-06T00:02:23;97553.19;;;15.30;100.00
73016;BME280;61893;50.074;14.440;2023-08-06T00:04:52;97547.44;;;15.27;100.00
73016;BME280;61893;50.074;14.440;2023-08-06T00:07:21;97545.78;;;15.32;100.00
73016;BME280;61893;50.074;14.440;2023-08-06T00:10:13;97540.03;;;15.29;100.00
73016;BME280;61893;50.074;14.440;2023-08-06T00:12:42;97543.72;;;15.21;100.00
73016;BME280;61893;50.074;14.440;2023-08-06T00:15:09;97550.94;;;15.14;100.00
73016;BME280;61893;50.074;14.440;2023-08-06T00:17:36;97544.56;;;15.15;100.00
73016;BME280;61893;50.074;14.440;2023-08-06T00:20:03;97543.53;;;15.23;100.00
73016;BME280;61893;50.074;14.440;2023-08-06T00:22:38;97532.38;;;15.19;100.00
73016;BME280;61893;50.074;14.440;2023-08-06T00:25:07;97524.34;;;15.26;100.00
73016;BME280;61893;50.074;14.440;2023-08-06T00:27:41;97513.44;;;15.21;100.00
73016;BME280;61893;50.074;14.440;2023-08-06T00:30:07;97507.25;;;15.20;100.00
73016;BME280;61893;50.074;14.440;2023-08-06T00:32:33;97499.22;;;15.20;100.00
73016;BME280;61893;50.074;14.440;2023-08-06T00:35:02;97499.00;;;15.15;100.00
73016;BME280;61893;50.074;14.440;2023-08-06T00:37:38;97503.94;;;15.18;100.00
73016;BME280;61893;50.074;14.440;2023-08-06T00:40:27;97505.59;;;15.13;100.00
73016;BME280;61893;50.074;14.440;2023-08-06T00:42:56;97506.41;;;15.13;100.00
73016;BME280;61893;50.074;14.440;2023-08-06T00:45:22;97508.06;;;15.07;100.00
73016;BME280;61893;50.074;14.440;2023-08-06T00:48:01;97501.25;;;15.05;100.00
73016;BME280;61893;50.074;14.440;2023-08-06T00:50:42;97495.31;;;15.03;100.00
73016;BME280;61893;50.074;14.440;2023-08-06T00:53:34;97485.81;;;15.07;100.00
73016;BME280;61893;50.074;14.440;2023-08-06T00:56:02;97487.28;;;15.03;100.00
73016;BME280;61893;50.074;14.440;2023-08-06T00:58:30;97489.31;;;15.01;100.00
73016;BME280;61893;50.074;14.440;2023-08-06T01:00:56;97487.88;;;15.05;100.00
73016;BME280;61893;50.074;14.440;2023-08-06T01:03:37;97484.59;;;15.03;100.00
73016;BME280;61893;50.074;14.440;2023-08-06T01:06:03;97480.06;;;14.97;100.00
73016;BME280;61893;50.074;14.440;2023-08-06T01:11:56;97469.94;;;14.92;100.00
73016;BME280;61893;50.074;14.440;2023-08-06T01:14:31;97472.03;;;14.97;100.00
73016;BME280;61893;50.074;14.440;2023-08-06T01:17:01;97465.19;;;14.87;100.00
73016;BME280;61893;50.074;14.440;2023-08-06T01:19:29;97464.19;;;14.89;100.00
73016;BME280;61893;50.074;14.440;2023-08-06T01:21:55;97464.41;;;14.94;100.00
73016;BME280;61893;50.074;14.440;2023-08-06T01:24:39;97460.28;;;14.98;100.00
73016;BME280;61893;50.074;14.440;2023-08-06T01:27:30;97453.25;;;14.90;100.00
73016;BME280;61893;50.074;14.440;2023-08-06T01:30:12;97456.16;;;14.89;100.00
73016;BME280;61893;50.074;14.440;2023-08-06T01:32:43;97463.38;;;14.95;100.00
73016;BME280;61893;50.074;14.440;2023-08-06T01:35:12;97460.28;;;14.91;100.00
73016;BME280;61893;50.074;14.440;2023-08-06T01:37:40;97467.91;;;15.01;100.00
73016;BME280;61893;50.074;14.440;2023-08-06T01:40:11;97474.72;;;14.97;100.00
73016;BME280;61893;50.074;14.440;2023-08-06T01:42:42;97461.91;;;14.99;100.00
73016;BME280;61893;50.074;14.440;2023-08-06T01:45:33;97453.47;;;15.02;100.00
73016;BME280;61893;50.074;14.440;2023-08-06T01:48:17;97458.00;;;14.95;100.00
73016;BME280;61893;50.074;14.440;2023-08-06T01:50:44;97455.75;;;14.92;100.00
73016;BME280;61893;50.074;14.440;2023-08-06T01:53:09;97453.88;;;14.92;100.00
73016;BME280;61893;50.074;14.440;2023-08-06T01:55:48;97458.84;;;14.89;100.00
73016;BME280;61893;50.074;14.440;2023-08-06T01:58:19;97457.38;;;14.93;100.00
73016;BME280;61893;50.074;14.440;2023-08-06T02:00:45;97454.69;;;14.93;100.00
73016;BME280;61893;50.074;14.440;2023-08-06T02:03:11;97453.88;;;14.92;100.00
73016;BME280;61893;50.074;14.440;2023-08-06T02:05:38;97449.34;;;14.93;100.00
73016;BME280;61893;50.074;14.440;2023-08-06T02:08:17;97447.09;;;14.83;100.00
73016;BME280;61893;50.074;14.440;2023-08-06T02:10:47;97446.25;;;14.76;100.00
73016;BME280;61893;50.074;14.440;2023-08-06T02:13:32;97438.63;;;14.73;100.00
73016;BME280;61893;50.074;14.440;2023-08-06T02:16:24;97450.38;;;14.72;100.00
73016;BME280;61893;50.074;14.440;2023-08-06T02:18:53;97452.44;;;14.70;100.00
73016;BME280;61893;50.074;14.440;2023-08-06T02:21:21;97450.16;;;14.73;100.00
73016;BME280;61893;50.074;14.440;2023-08-06T02:23:50;97442.34;;;14.72;100.00
73016;BME280;61893;50.074;14.440;2023-08-06T02:26:23;97444.38;;;14.76;100.00
73016;BME280;61893;50.074;14.440;2023-08-06T02:28:54;97455.50;;;14.73;100.00
73016;BME280;61893;50.074;14.440;2023-08-06T02:31:20;97438.44;;;14.74;100.00
73016;BME280;61893;50.074;14.440;2023-08-06T02:33:49;97446.47;;;14.87;100.00
73016;BME280;61893;50.074;14.440;2023-08-06T02:36:15;97443.78;;;14.87;100.00
73016;BME280;61893;50.074;14.440;2023-08-06T02:38:43;97434.72;;;14.82;100.00
73016;BME280;61893;50.074;14.440;2023-08-06T02:41:31;97440.06;;;14.82;100.00
73016;BME280;61893;50.074;14.440;2023-08-06T02:43:58;97433.50;;;14.78;100.00
73016;BME280;61893;50.074;14.440;2023-08-06T02:46:25;97425.66;;;14.83;100.00
73016;BME280;61893;50.074;14.440;2023-08-06T02:48:50;97421.13;;;14.83;100.00
73016;BME280;61893;50.074;14.440;2023-08-06T02:51:44;97414.72;;;14.84;100.00
73016;BME280;61893;50.074;14.440;2023-08-06T02:54:30;97417.41;;;14.84;100.00
73016;BME280;61893;50.074;14.440;2023-08-06T02:56:59;97418.47;;;14.77;100.00
73016;BME280;61893;50.074;14.440;2023-08-06T02:59:28;97426.47;;;14.70;100.00
73016;BME280;61893;50.074;14.440;2023-08-06T03:01:56;97421.34;;;14.69;100.00
73016;BME280;61893;50.074;14.440;2023-08-06T03:04:23;97419.09;;;14.85;100.00
73016;BME280;61893;50.074;14.440;2023-08-06T03:06:50;97414.94;;;14.76;100.00
73016;BME280;61893;50.074;14.440;2023-08-06T03:09:25;97412.47;;;14.81;100.00
73016;BME280;61893;50.074;14.440;2023-08-06T03:12:00;97406.28;;;14.81;100.00
73016;BME280;61893;50.074;14.440;2023-08-06T03:14:40;97403.81;;;14.86;100.00
73016;BME280;61893;50.074;14.440;2023-08-06T03:17:07;97402.59;;;14.89;100.00
73016;BME280;61893;50.074;14.440;2023-08-06T03:19:43;97402.19;;;14.78;100.00
73016;BME280;61893;50.074;14.440;2023-08-06T03:22:31;97400.75;;;14.82;100.00
73016;BME280;61893;50.074;14.440;2023-08-06T03:25:00;97392.28;;;14.92;100.00
73016;BME280;61893;50.074;14.440;2023-08-06T03:27:42;97398.47;;;14.93;100.00
73016;BME280;61893;50.074;14.440;2023-08-06T03:30:11;97390.22;;;14.94;100.00
73016;BME280;61893;50.074;14.440;2023-08-06T03:32:37;97381.56;;;14.99;100.00
73016;BME280;61893;50.074;14.440;2023-08-06T03:35:07;97382.41;;;14.86;100.00
73016;BME280;61893;50.074;14.440;2023-08-06T03:37:36;97377.44;;;14.96;100.00
73016;BME280;61893;50.074;14.440;2023-08-06T03:40:02;97379.91;;;14.84;100.00
73016;BME280;61893;50.074;14.440;2023-08-06T03:42:29;97377.84;;;14.93;100.00
73016;BME280;61893;50.074;14.440;2023-08-06T03:44:58;97370.44;;;14.95;99.72
73016;BME280;61893;50.074;14.440;2023-08-06T03:47:23;97370.03;;;14.85;99.93
73016;BME280;61893;50.074;14.440;2023-08-06T03:49:50;97373.53;;;14.79;100.00
73016;BME280;61893;50.074;14.440;2023-08-06T03:52:15;97372.31;;;14.81;99.89
73016;BME280;61893;50.074;14.440;2023-08-06T03:54:48;97370.47;;;14.89;99.61
73016;BME280;61893;50.074;14.440;2023-08-06T03:57:18;97366.13;;;14.81;100.00
73016;BME280;61893;50.074;14.440;2023-08-06T04:00:07;97361.00;;;14.79;100.00
73016;BME280;61893;50.074;14.440;2023-08-06T04:02:34;97353.34;;;14.76;100.00
73016;BME280;61893;50.074;14.440;2023-08-06T04:05:04;97352.97;;;14.79;100.00
73016;BME280;61893;50.074;14.440;2023-08-06T04:07:41;97355.22;;;14.76;100.00
73016;BME280;61893;50.074;14.440;2023-08-06T04:10:26;97351.31;;;14.72;100.00
73016;BME280;61893;50.074;14.440;2023-08-06T04:13:13;97349.03;;;14.82;99.95
73016;BME280;61893;50.074;14.440;2023-08-06T04:16:25;97341.00;;;14.75;100.00
73016;BME280;61893;50.074;14.440;2023-08-06T04:20:13;97334.00;;;14.81;100.00
73016;BME280;61893;50.074;14.440;2023-08-06T04:23:16;97327.19;;;14.78;100.00
73016;BME280;61893;50.074;14.440;2023-08-06T04:26:04;97326.56;;;14.90;100.00
73016;BME280;61893;50.074;14.440;2023-08-06T04:28:41;97325.56;;;14.77;100.00
73016;BME280;61893;50.074;14.440;2023-08-06T04:31:10;97330.50;;;14.80;100.00
73016;BME280;61893;50.074;14.440;2023-08-06T04:33:39;97329.47;;;14.75;100.00
73016;BME280;61893;50.074;14.440;2023-08-06T04:36:07;97326.19;;;14.79;100.00
73016;BME280;61893;50.074;14.440;2023-08-06T04:38:39;97331.94;;;14.76;100.00
73016;BME280;61893;50.074;14.440;2023-08-06T04:41:24;97323.72;;;14.71;100.00
73016;BME280;61893;50.074;14.440;2023-08-06T04:43:56;97322.69;;;14.72;100.00
73016;BME280;61893;50.074;14.440;2023-08-06T04:47:13;97318.78;;;14.75;100.00
73016;BME280;61893;50.074;14.440;2023-08-06T04:49:41;97311.13;;;14.78;100.00
73016;BME280;61893;50.074;14.440;2023-08-06T04:52:19;97308.22;;;14.93;100.00
73016;BME280;61893;50.074;14.440;2023-08-06T04:55:05;97307.59;;;14.98;100.00
73016;BME280;61893;50.074;14.440;2023-08-06T04:57:46;97310.47;;;14.96;100.00
73016;BME280;61893;50.074;14.440;2023-08-06T05:00:31;97304.47;;;15.07;100.00
73016;BME280;61893;50.074;14.440;2023-08-06T05:02:59;97303.22;;;15.10;100.00
73016;BME280;61893;50.074;14.440;2023-08-06T05:05:28;97299.09;;;15.07;100.00
73016;BME280;61893;50.074;14.440;2023-08-06T05:07:57;97304.91;;;14.98;100.00
73016;BME280;61893;50.074;14.440;2023-08-06T05:10:27;97298.72;;;15.04;99.93
73016;BME280;61893;50.074;14.440;2023-08-06T05:12:54;97299.94;;;15.01;99.97
73016;BME280;61893;50.074;14.440;2023-08-06T05:15:38;97302.25;;;14.98;100.00
73016;BME280;61893;50.074;14.440;2023-08-06T05:18:08;97296.50;;;14.94;100.00
73016;BME280;61893;50.074;14.440;2023-08-06T05:20:39;97304.94;;;14.84;99.90
73016;BME280;61893;50.074;14.440;2023-08-06T05:23:07;97300.81;;;14.95;100.00
73016;BME280;61893;50.074;14.440;2023-08-06T05:25:37;97302.00;;;14.99;100.00
73016;BME280;61893;50.074;14.440;2023-08-06T05:28:27;97302.84;;;15.00;99.54
73016;BME280;61893;50.074;14.440;2023-08-06T05:31:17;97305.69;;;15.05;99.67
73016;BME280;61893;50.074;14.440;2023-08-06T05:34:02;97301.38;;;15.10;99.28
73016;BME280;61893;50.074;14.440;2023-08-06T05:36:29;97296.78;;;15.24;98.82
73016;BME280;61893;50.074;14.440;2023-08-06T05:38:55;97291.00;;;15.27;98.70
73016;BME280;61893;50.074;14.440;2023-08-06T05:41:38;97290.59;;;15.24;98.72
73016;BME280;61893;50.074;14.440;2023-08-06T05:44:07;97293.19;;;15.44;97.97
73016;BME280;61893;50.074;14.440;2023-08-06T05:46:42;97281.00;;;15.48;97.46
73016;BME280;61893;50.074;14.440;2023-08-06T05:49:26;97274.16;;;15.59;96.72
73016;BME280;61893;50.074;14.440;2023-08-06T05:51:58;97284.66;;;15.60;96.61
73016;BME280;61893;50.074;14.440;2023-08-06T05:54:26;97282.00;;;15.53;96.73
73016;BME280;61893;50.074;14.440;2023-08-06T05:57:07;97292.66;;;15.67;96.57
73016;BME280;61893;50.074;14.440;2023-08-06T05:59:33;97293.72;;;15.66;96.56
73016;BME280;61893;50.074;14.440;2023-08-06T06:02:24;97294.56;;;15.60;96.52
73016;BME280;61893;50.074;14.440;2023-08-06T06:04:50;97288.56;;;15.64;95.07
73016;BME280;61893;50.074;14.440;2023-08-06T06:07:37;97283.91;;;15.85;95.22
73016;BME280;61893;50.074;14.440;2023-08-06T06:10:07;97272.59;;;15.83;94.80
73016;BME280;61893;50.074;14.440;2023-08-06T06:12:38;97276.75;;;15.79;94.82
73016;BME280;61893;50.074;14.440;2023-08-06T06:15:13;97279.50;;;15.65;95.90
73016;BME280;61893;50.074;14.440;2023-08-06T06:17:39;97287.28;;;15.73;95.70
73016;BME280;61893;50.074;14.440;2023-08-06T06:20:20;97284.47;;;15.55;96.73
73016;BME280;61893;50.074;14.440;2023-08-06T06:22:55;97284.91;;;15.52;97.59
73016;BME280;61893;50.074;14.440;2023-08-06T06:25:56;97285.22;;;15.75;96.32
73016;BME280;61893;50.074;14.440;2023-08-06T06:28:35;97276.78;;;16.04;94.85
73016;BME280;61893;50.074;14.440;2023-08-06T06:31:25;97281.78;;;15.93;95.26
73016;BME280;61893;50.074;14.440;2023-08-06T06:33:51;97277.22;;;16.01;95.80
73016;BME280;61893;50.074;14.440;2023-08-06T06:36:20;97274.28;;;16.09;94.79
73016;BME280;61893;50.074;14.440;2023-08-06T06:38:50;97278.59;;;16.10;93.91
73016;BME280;61893;50.074;14.440;2023-08-06T06:41:18;97271.75;;;16.14;94.16
73016;BME280;61893;50.074;14.440;2023-08-06T06:44:05;97275.13;;;16.28;92.21
73016;BME280;61893;50.074;14.440;2023-08-06T06:47:15;97275.03;;;16.41;91.93
73016;BME280;61893;50.074;14.440;2023-08-06T06:49:50;97276.78;;;16.29;92.18
73016;BME280;61893;50.074;14.440;2023-08-06T06:52:16;97272.28;;;16.48;91.09
73016;BME280;61893;50.074;14.440;2023-08-06T06:55:05;97277.06;;;16.46;91.44
73016;BME280;61893;50.074;14.440;2023-08-06T06:58:22;97271.09;;;16.43;92.06
73016;BME280;61893;50.074;14.440;2023-08-06T07:00:53;97272.28;;;16.48;90.79
73016;BME280;61893;50.074;14.440;2023-08-06T07:04:23;97278.50;;;16.66;90.25
73016;BME280;61893;50.074;14.440;2023-08-06T07:07:21;97277.09;;;16.64;90.54
73016;BME280;61893;50.074;14.440;2023-08-06T07:10:17;97274.03;;;16.60;90.99
73016;BME280;61893;50.074;14.440;2023-08-06T07:12:50;97274.38;;;16.46;91.43
73016;BME280;61893;50.074;14.440;2023-08-06T07:15:36;97271.91;;;16.44;92.07
73016;BME280;61893;50.074;14.440;2023-08-06T07:18:06;97275.38;;;16.70;91.96
73016;BME280;61893;50.074;14.440;2023-08-06T07:20:34;97276.22;;;16.45;92.79
73016;BME280;61893;50.074;14.440;2023-08-06T07:23:15;97268.22;;;16.63;90.77
73016;BME280;61893;50.074;14.440;2023-08-06T07:25:41;97266.00;;;16.79;90.95
73016;BME280;61893;50.074;14.440;2023-08-06T07:28:48;97264.97;;;16.80;90.42
73016;BME280;61893;50.074;14.440;2023-08-06T07:31:19;97263.19;;;16.92;90.12
73016;BME280;61893;50.074;14.440;2023-08-06T07:33:46;97270.66;;;17.08;88.74
73016;BME280;61893;50.074;14.440;2023-08-06T07:36:14;97268.91;;;17.32;87.54
73016;BME280;61893;50.074;14.440;2023-08-06T07:39:28;97271.91;;;17.24;86.61
73016;BME280;61893;50.074;14.440;2023-08-06T07:42:25;97263.94;;;17.18;85.94
73016;BME280;61893;50.074;14.440;2023-08-06T07:44:54;97256.88;;;17.17;85.58
73016;BME280;61893;50.074;14.440;2023-08-06T07:50:18;97260.19;;;17.37;84.33
73016;BME280;61893;50.074;14.440;2023-08-06T07:52:44;97258.09;;;17.51;83.76
73016;BME280;61893;50.074;14.440;2023-08-06T07:55:10;97258.81;;;17.46;85.64
73016;BME280;61893;50.074;14.440;2023-08-06T07:57:39;97255.81;;;17.54;84.30
73016;BME280;61893;50.074;14.440;2023-08-06T08:00:05;97256.72;;;17.48;84.73
73016;BME280;61893;50.074;14.440;2023-08-06T08:02:33;97251.75;;;17.45;83.78
73016;BME280;61893;50.074;14.440;2023-08-06T08:05:01;97251.72;;;17.33;84.35
73016;BME280;61893;50.074;14.440;2023-08-06T08:07:36;97246.66;;;17.55;83.69
73016;BME280;61893;50.074;14.440;2023-08-06T08:10:05;97242.97;;;17.68;82.88
73016;BME280;61893;50.074;14.440;2023-08-06T08:12:33;97238.28;;;17.33;83.81
73016;BME280;61893;50.074;14.440;2023-08-06T08:14:59;97247.22;;;17.46;83.79
73016;BME280;61893;50.074;14.440;2023-08-06T08:17:28;97234.22;;;17.73;81.89
73016;BME280;61893;50.074;14.440;2023-08-06T08:19:54;97245.22;;;17.71;80.84
73016;BME280;61893;50.074;14.440;2023-08-06T08:22:22;97240.94;;;17.82;81.46
73016;BME280;61893;50.074;14.440;2023-08-06T08:24:49;97226.81;;;17.87;81.09
73016;BME280;61893;50.074;14.440;2023-08-06T08:27:16;97242.16;;;17.68;81.30
73016;BME280;61893;50.074;14.440;2023-08-06T08:29:44;97246.50;;;17.69;82.18
73016;BME280;61893;50.074;14.440;2023-08-06T08:32:54;97236.53;;;17.09;85.73
73016;BME280;61893;50.074;14.440;2023-08-06T08:35:36;97238.47;;;17.20;85.03
73016;BME280;61893;50.074;14.440;2023-08-06T08:38:34;97232.44;;;16.88;86.35
73016;BME280;61893;50.074;14.440;2023-08-06T08:41:01;97225.97;;;16.77;85.73
73016;BME280;61893;50.074;14.440;2023-08-06T08:43:36;97227.47;;;16.66;87.38
73016;BME280;61893;50.074;14.440;2023-08-06T08:46:11;97225.25;;;16.82;87.67
73016;BME280;61893;50.074;14.440;2023-08-06T08:49:00;97231.50;;;16.76;87.92
73016;BME280;61893;50.074;14.440;2023-08-06T08:51:43;97234.63;;;16.73;87.03
73016;BME280;61893;50.074;14.440;2023-08-06T08:54:16;97225.66;;;16.85;87.33
73016;BME280;61893;50.074;14.440;2023-08-06T08:56:47;97226.31;;;16.81;88.05
73016;BME280;61893;50.074;14.440;2023-08-06T08:59:14;97222.00;;;16.80;86.53
73016;BME280;61893;50.074;14.440;2023-08-06T09:01:44;97222.09;;;17.22;83.04
73016;BME280;61893;50.074;14.440;2023-08-06T09:04:13;97217.06;;;17.44;81.66
73016;BME280;61893;50.074;14.440;2023-08-06T09:06:41;97216.91;;;17.69;79.90
73016;BME280;61893;50.074;14.440;2023-08-06T09:09:13;97216.50;;;17.84;78.95
73016;BME280;61893;50.074;14.440;2023-08-06T09:11:49;97221.38;;;17.75;79.29
73016;BME280;61893;50.074;14.440;2023-08-06T09:14:30;97218.63;;;18.05;77.96
73016;BME280;61893;50.074;14.440;2023-08-06T09:17:25;97216.66;;;18.00;77.39
73016;BME280;61893;50.074;14.440;2023-08-06T09:20:12;97208.72;;;18.06;78.08
73016;BME280;61893;50.074;14.440;2023-08-06T09:24:17;97206.38;;;18.21;77.25
73016;BME280;61893;50.074;14.440;2023-08-06T09:27:30;97201.19;;;18.31;76.88
73016;BME280;61893;50.074;14.440;2023-08-06T09:30:48;97205.06;;;18.47;75.81
73016;BME280;61893;50.074;14.440;2023-08-06T09:33:20;97206.34;;;18.44;76.75
73016;BME280;61893;50.074;14.440;2023-08-06T09:36:28;97204.47;;;18.10;76.35
73016;BME280;61893;50.074;14.440;2023-08-06T09:40:23;97204.72;;;18.20;76.18
73016;BME280;61893;50.074;14.440;2023-08-06T09:43:41;97199.22;;;18.15;78.59
73016;BME280;61893;50.074;14.440;2023-08-06T09:47:02;97200.09;;;17.43;81.42
73016;BME280;61893;50.074;14.440;2023-08-06T09:50:28;97206.50;;;17.42;80.93
73016;BME280;61893;50.074;14.440;2023-08-06T09:53:56;97185.00;;;17.42;81.23
73016;BME280;61893;50.074;14.440;2023-08-06T09:56:55;97193.69;;;17.56;81.01
73016;BME280;61893;50.074;14.440;2023-08-06T09:59:32;97188.88;;;17.46;82.37
73016;BME280;61893;50.074;14.440;2023-08-06T10:03:14;97189.50;;;17.48;83.21
73016;BME280;61893;50.074;14.440;2023-08-06T10:06:31;97183.09;;;17.31;82.74
73016;BME280;61893;50.074;14.440;2023-08-06T10:09:17;97182.88;;;17.32;83.18
73016;BME280;61893;50.074;14.440;2023-08-06T10:12:17;97183.09;;;17.31;81.66
73016;BME280;61893;50.074;14.440;2023-08-06T10:15:36;97172.91;;;17.63;81.39
73016;BME280;61893;50.074;14.440;2023-08-06T10:18:59;97174.28;;;17.96;80.00
73016;BME280;61893;50.074;14.440;2023-08-06T10:25:44;97168.06;;;18.54;75.88
73016;BME280;61893;50.074;14.440;2023-08-06T10:29:21;97159.16;;;18.77;74.20
73016;BME280;61893;50.074;14.440;2023-08-06T10:33:08;97161.44;;;18.97;73.83
73016;BME280;61893;50.074;14.440;2023-08-06T10:36:26;97155.50;;;19.41;72.65
73016;BME280;61893;50.074;14.440;2023-08-06T10:39:56;97158.59;;;19.78;70.52
73016;BME280;61893;50.074;14.440;2023-08-06T10:44:10;97155.72;;;19.85;68.73
73016;BME280;61893;50.074;14.440;2023-08-06T10:46:46;97146.38;;;19.58;69.08
73016;BME280;61893;50.074;14.440;2023-08-06T10:49:31;97151.91;;;19.97;67.98
73016;BME280;61893;50.074;14.440;2023-08-06T10:52:06;97158.25;;;19.91;66.22
73016;BME280;61893;50.074;14.440;2023-08-06T10:54:31;97162.53;;;19.87;65.43
73016;BME280;61893;50.074;14.440;2023-08-06T10:57:08;97146.56;;;19.86;65.30
73016;BME280;61893;50.074;14.440;2023-08-06T11:00:12;97159.94;;;19.64;66.64
73016;BME280;61893;50.074;14.440;2023-08-06T11:03:04;97153.38;;;19.59;65.77
73016;BME280;61893;50.074;14.440;2023-08-06T11:06:22;97150.31;;;19.68;63.76
73016;BME280;61893;50.074;14.440;2023-08-06T11:09:53;97148.84;;;19.77;62.63
73016;BME280;61893;50.074;14.440;2023-08-06T11:12:54;97158.00;;;19.30;64.33
73016;BME280;61893;50.074;14.440;2023-08-06T11:15:27;97159.19;;;19.51;63.33
73016;BME280;61893;50.074;14.440;2023-08-06T11:18:44;97159.28;;;19.56;63.53
73016;BME280;61893;50.074;14.440;2023-08-06T11:22:17;97158.44;;;19.85;62.48
73016;BME280;61893;50.074;14.440;2023-08-06T11:24:50;97153.22;;;19.78;62.44
73016;BME280;61893;50.074;14.440;2023-08-06T11:27:54;97151.16;;;19.40;62.73
73016;BME280;61893;50.074;14.440;2023-08-06T11:31:37;97157.47;;;19.45;62.17
73016;BME280;61893;50.074;14.440;2023-08-06T11:39:34;97163.09;;;19.72;63.40
73016;BME280;61893;50.074;14.440;2023-08-06T11:43:14;97170.53;;;19.36;64.87
73016;BME280;61893;50.074;14.440;2023-08-06T11:46:21;97159.81;;;18.73;66.60
73016;BME280;61893;50.074;14.440;2023-08-06T11:48:53;97153.34;;;18.97;66.87
73016;BME280;61893;50.074;14.440;2023-08-06T11:52:16;97160.00;;;19.06;66.63
73016;BME280;61893;50.074;14.440;2023-08-06T11:55:22;97158.34;;;19.05;67.06
73016;BME280;61893;50.074;14.440;2023-08-06T11:57:56;97159.50;;;19.09;67.51
73016;BME280;61893;50.074;14.440;2023-08-06T12:01:45;97150.97;;;18.25;71.71
73016;BME280;61893;50.074;14.440;2023-08-06T12:05:33;97158.59;;;18.05;73.35
73016;BME280;61893;50.074;14.440;2023-08-06T12:08:57;97162.22;;;18.22;73.38
73016;BME280;61893;50.074;14.440;2023-08-06T12:12:19;97160.81;;;17.96;75.35
73016;BME280;61893;50.074;14.440;2023-08-06T12:15:36;97156.47;;;18.54;73.52
73016;BME280;61893;50.074;14.440;2023-08-06T12:19:19;97146.94;;;18.86;71.94
73016;BME280;61893;50.074;14.440;2023-08-06T12:23:04;97140.44;;;18.99;71.92
73016;BME280;61893;50.074;14.440;2023-08-06T12:29:13;97141.44;;;18.81;72.46
73016;BME280;61893;50.074;14.440;2023-08-06T12:31:41;97141.59;;;19.03;71.96
73016;BME280;61893;50.074;14.440;2023-08-06T12:34:07;97139.78;;;18.92;71.55
73016;BME280;61893;50.074;14.440;2023-08-06T12:36:35;97142.59;;;19.14;71.47
73016;BME280;61893;50.074;14.440;2023-08-06T12:39:02;97144.63;;;19.35;69.60
73016;BME280;61893;50.074;14.440;2023-08-06T12:41:30;97144.28;;;19.32;70.04
73016;BME280;61893;50.074;14.440;2023-08-06T12:43:56;97147.44;;;19.12;71.05
73016;BME280;61893;50.074;14.440;2023-08-06T12:46:23;97147.41;;;18.60;72.85
73016;BME280;61893;50.074;14.440;2023-08-06T12:48:49;97137.03;;;18.52;74.22
73016;BME280;61893;50.074;14.440;2023-08-06T12:51:17;97141.88;;;18.90;72.92
73016;BME280;61893;50.074;14.440;2023-08-06T12:54:55;97143.75;;;18.89;72.36
73016;BME280;61893;50.074;14.440;2023-08-06T12:57:39;97137.41;;;18.96;71.62
73016;BME280;61893;50.074;14.440;2023-08-06T13:00:56;97141.28;;;19.17;72.21
73016;BME280;61893;50.074;14.440;2023-08-06T13:03:50;97146.72;;;19.33;72.33
73016;BME280;61893;50.074;14.440;2023-08-06T13:07:19;97147.19;;;19.59;70.13
73016;BME280;61893;50.074;14.440;2023-08-06T13:10:35;97152.41;;;19.77;69.70
73016;BME280;61893;50.074;14.440;2023-08-06T13:13:23;97147.53;;;19.96;67.41
73016;BME280;61893;50.074;14.440;2023-08-06T13:16:42;97154.00;;;20.12;64.27
73016;BME280;61893;50.074;14.440;2023-08-06T13:20:26;97152.22;;;20.01;64.02
73016;BME280;61893;50.074;14.440;2023-08-06T13:23:37;97147.94;;;20.22;63.61
73016;BME280;61893;50.074;14.440;2023-08-06T13:26:30;97150.75;;;20.49;62.53
73016;BME280;61893;50.074;14.440;2023-08-06T13:29:48;97154.00;;;20.12;63.67
73016;BME280;61893;50.074;14.440;2023-08-06T13:33:20;97153.69;;;20.47;62.53
73016;BME280;61893;50.074;14.440;2023-08-06T13:36:35;97147.47;;;20.64;61.32
73016;BME280;61893;50.074;14.440;2023-08-06T13:39:16;97148.84;;;20.88;59.55
73016;BME280;61893;50.074;14.440;2023-08-06T13:42:59;97153.13;;;21.33;58.80
73016;BME280;61893;50.074;14.440;2023-08-06T13:46:05;97153.16;;;21.61;56.36
73016;BME280;61893;50.074;14.440;2023-08-06T13:48:35;97147.97;;;21.59;56.71
73016;BME280;61893;50.074;14.440;2023-08-06T13:51:23;97149.94;;;21.64;56.67
73016;BME280;61893;50.074;14.440;2023-08-06T13:54:21;97145.34;;;21.64;56.19
73016;BME280;61893;50.074;14.440;2023-08-06T13:57:03;97147.59;;;21.45;58.00
73016;BME280;61893;50.074;14.440;2023-08-06T13:59:44;97147.94;;;21.05;60.11
73016;BME280;61893;50.074;14.440;2023-08-06T14:02:25;97148.53;;;20.85;60.86
73016;BME280;61893;50.074;14.440;2023-08-06T14:05:06;97154.56;;;20.92;61.05
73016;BME280;61893;50.074;14.440;2023-08-06T14:07:39;97145.50;;;20.20;63.28
73016;BME280;61893;50.074;14.440;2023-08-06T14:11:01;97140.75;;;19.94;64.38
73016;BME280;61893;50.074;14.440;2023-08-06T14:14:37;97140.59;;;20.17;63.94
73016;BME280;61893;50.074;14.440;2023-08-06T14:19:03;97137.56;;;19.97;64.35
73016;BME280;61893;50.074;14.440;2023-08-06T14:23:11;97144.91;;;20.18;63.29
73016;BME280;61893;50.074;14.440;2023-08-06T14:27:10;97152.75;;;20.20;63.50
73016;BME280;61893;50.074;14.440;2023-08-06T14:30:41;97147.78;;;20.67;61.88
73016;BME280;61893;50.074;14.440;2023-08-06T14:33:34;97150.94;;;20.25;62.39
73016;BME280;61893;50.074;14.440;2023-08-06T14:36:57;97152.84;;;20.25;61.75
73016;BME280;61893;50.074;14.440;2023-08-06T14:40:35;97152.13;;;20.13;61.17
73016;BME280;61893;50.074;14.440;2023-08-06T14:44:16;97152.38;;;20.67;59.74